createdAt,value
2022-09-11T00:00:44.394Z,28.90
2022-09-11T00:03:11.811Z,27.00
2022-09-11T00:05:40.235Z,26.27
2022-09-11T00:08:08.061Z,25.13
2022-09-11T00:10:40.174Z,26.60
2022-09-11T00:13:07.750Z,24.77
2022-09-11T00:15:37.497Z,26.83
2022-09-11T00:18:05.143Z,24.57
2022-09-11T00:20:33.782Z,23.10
2022-09-11T00:23:04.764Z,24.07
2022-09-11T00:25:34.252Z,26.23
2022-09-11T00:28:03.432Z,27.30
2022-09-11T00:30:31.103Z,23.00
2022-09-11T00:32:58.459Z,24.47
2022-09-11T00:35:25.848Z,24.17
2022-09-11T00:37:53.234Z,24.60
2022-09-11T00:40:21.243Z,23.50
2022-09-11T00:42:52.886Z,25.43
2022-09-11T00:45:22.947Z,24.37
2022-09-11T00:47:51.611Z,25.20
2022-09-11T00:50:20.067Z,28.10
2022-09-11T00:52:53.106Z,25.70
2022-09-11T00:55:23.034Z,23.63
2022-09-11T00:57:52.398Z,25.37
2022-09-11T01:00:19.959Z,26.03
2022-09-11T01:02:50.062Z,27.27
2022-09-11T01:05:18.225Z,27.50
2022-09-11T01:07:47.174Z,25.50
2022-09-11T01:10:14.886Z,23.83
2022-09-11T01:12:48.708Z,23.90
2022-09-11T01:15:20.644Z,27.87
2022-09-11T01:17:53.931Z,25.70
2022-09-11T01:20:28.120Z,25.93
2022-09-11T01:23:04.454Z,24.70
2022-09-11T01:25:35.985Z,25.43
2022-09-11T01:28:06.557Z,28.23
2022-09-11T01:30:37.235Z,27.23
2022-09-11T01:33:07.820Z,25.23
2022-09-11T01:35:42.867Z,26.80
2022-09-11T01:38:11.848Z,29.60
2022-09-11T01:40:41.303Z,28.20
2022-09-11T01:43:13.675Z,30.13
2022-09-11T01:45:42.476Z,30.20
2022-09-11T01:48:10.998Z,34.40
2022-09-11T01:50:39.868Z,28.30
2022-09-11T01:53:09.747Z,27.77
2022-09-11T01:55:38.755Z,34.13
2022-09-11T01:58:08.601Z,26.53
2022-09-11T02:00:38.290Z,30.67
2022-09-11T02:03:08.326Z,27.40
2022-09-11T02:05:40.216Z,27.30
2022-09-11T02:08:09.434Z,28.23
2022-09-11T02:10:40.461Z,27.87
2022-09-11T02:13:12.640Z,24.17
2022-09-11T02:15:43.871Z,30.93
2022-09-11T02:18:16.192Z,25.20
2022-09-11T02:20:47.594Z,26.43
2022-09-11T02:23:15.620Z,29.43
2022-09-11T02:25:43.083Z,32.40
2022-09-11T02:28:10.893Z,26.67
2022-09-11T02:30:39.244Z,29.03
2022-09-11T02:33:21.532Z,25.60
2022-09-11T02:35:52.987Z,28.00
2022-09-11T02:38:24.976Z,28.67
2022-09-11T02:40:55.345Z,33.23
2022-09-11T02:43:26.855Z,28.43
2022-09-11T02:45:58.489Z,29.20
2022-09-11T02:48:36.663Z,27.33
2022-09-11T02:51:16.226Z,24.83
2022-09-11T02:53:48.738Z,30.53
2022-09-11T02:56:17.851Z,29.20
2022-09-11T02:58:46.676Z,28.63
2022-09-11T03:01:14.131Z,35.00
2022-09-11T03:03:42.373Z,34.30
2022-09-11T03:06:12.161Z,30.03
2022-09-11T03:08:39.704Z,33.43
2022-09-11T03:11:08.787Z,36.40
2022-09-11T03:13:36.553Z,37.40
2022-09-11T03:16:04.714Z,42.90
2022-09-11T03:18:33.071Z,37.30
2022-09-11T03:21:00.651Z,43.17
2022-09-11T03:23:29.467Z,45.83
2022-09-11T03:25:56.879Z,40.73
2022-09-11T03:28:24.320Z,45.80
2022-09-11T03:30:52.758Z,39.57
2022-09-11T03:33:20.146Z,44.70
2022-09-11T03:35:48.108Z,39.60
2022-09-11T03:38:15.620Z,45.80
2022-09-11T03:40:44.601Z,55.63
2022-09-11T03:43:12.369Z,48.63
2022-09-11T03:45:39.950Z,54.23
2022-09-11T03:48:07.635Z,58.67
2022-09-11T03:50:35.108Z,68.20
2022-09-11T03:53:02.759Z,65.13
2022-09-11T03:55:31.596Z,58.87
2022-09-11T03:58:00.728Z,64.77
2022-09-11T04:00:28.086Z,76.40
2022-09-11T04:02:55.643Z,67.40
2022-09-11T04:05:24.744Z,65.27
2022-09-11T04:07:53.059Z,65.57
2022-09-11T04:10:20.916Z,74.80
2022-09-11T04:12:48.349Z,69.77
2022-09-11T04:15:17.232Z,67.07
2022-09-11T04:17:44.624Z,65.07
2022-09-11T04:20:12.181Z,71.90
2022-09-11T04:22:40.912Z,84.60
2022-09-11T04:25:09.096Z,76.73
2022-09-11T04:27:36.467Z,69.27
2022-09-11T04:30:03.885Z,75.23
2022-09-11T04:32:34.187Z,74.77
2022-09-11T04:35:02.594Z,84.10
2022-09-11T04:37:29.988Z,80.87
2022-09-11T04:39:57.434Z,89.10
2022-09-11T04:42:24.852Z,89.00
2022-09-11T04:44:52.223Z,95.47
2022-09-11T04:47:19.606Z,86.57
2022-09-11T04:49:48.617Z,91.27
2022-09-11T04:52:15.999Z,86.30
2022-09-11T04:54:43.338Z,87.70
2022-09-11T04:57:10.767Z,101.40
2022-09-11T04:59:38.897Z,94.33
2022-09-11T05:02:06.529Z,98.00
2022-09-11T05:04:33.925Z,103.03
2022-09-11T05:07:02.824Z,96.40
2022-09-11T05:09:30.264Z,111.20
2022-09-11T05:11:57.990Z,111.77
2022-09-11T05:14:25.386Z,110.43
2022-09-11T05:16:54.850Z,109.43
2022-09-11T05:19:22.451Z,115.50
2022-09-11T05:21:49.819Z,121.87
2022-09-11T05:24:18.598Z,111.57
2022-09-11T05:26:45.933Z,111.73
2022-09-11T05:29:13.870Z,116.23
2022-09-11T05:31:41.597Z,116.80
2022-09-11T05:34:09.031Z,128.23
2022-09-11T05:36:36.880Z,109.70
2022-09-11T05:39:04.892Z,106.73
2022-09-11T05:41:33.630Z,108.80
2022-09-11T05:44:01.076Z,115.80
2022-09-11T05:46:28.627Z,113.43
2022-09-11T05:48:55.994Z,99.17
2022-09-11T05:51:23.834Z,115.77
2022-09-11T05:53:53.516Z,110.30
2022-09-11T05:56:22.361Z,116.20
2022-09-11T05:58:52.575Z,112.80
2022-09-11T06:01:20.734Z,105.13
2022-09-11T06:03:49.405Z,113.73
2022-09-11T06:06:17.473Z,104.10
2022-09-11T06:08:45.076Z,113.33
2022-09-11T06:11:13.644Z,110.10
2022-09-11T06:13:41.725Z,100.37
2022-09-11T06:16:14.647Z,111.27
2022-09-11T06:18:45.362Z,110.70
2022-09-11T06:21:14.403Z,115.93
2022-09-11T06:23:41.992Z,102.77
2022-09-11T06:26:10.626Z,109.90
2022-09-11T06:28:38.207Z,105.23
2022-09-11T06:31:06.218Z,106.83
2022-09-11T06:33:36.360Z,108.03
2022-09-11T06:36:05.282Z,100.60
2022-09-11T06:38:32.982Z,110.30
2022-09-11T06:41:02.987Z,101.87
2022-09-11T06:43:30.640Z,106.33
2022-09-11T06:46:04.433Z,114.17
2022-09-11T06:48:31.931Z,112.10
2022-09-11T06:51:04.633Z,108.53
2022-09-11T06:53:32.207Z,109.30
2022-09-11T06:56:00.423Z,111.50
2022-09-11T06:58:29.226Z,109.70
2022-09-11T07:00:56.766Z,115.20
2022-09-11T07:03:24.198Z,114.83
2022-09-11T07:05:51.579Z,114.20
2022-09-11T07:08:24.866Z,117.10
2022-09-11T07:10:52.530Z,120.07
2022-09-11T07:13:20.363Z,123.83
2022-09-11T07:15:49.237Z,113.27
2022-09-11T07:18:17.903Z,111.17
2022-09-11T07:20:46.848Z,105.97
2022-09-11T07:23:14.227Z,113.23
2022-09-11T07:25:43.626Z,116.37
2022-09-11T07:28:12.427Z,105.57
2022-09-11T07:30:40.468Z,117.07
2022-09-11T07:33:07.898Z,109.30
2022-09-11T07:35:37.221Z,105.70
2022-09-11T07:38:04.655Z,115.20
2022-09-11T07:40:32.315Z,119.37
2022-09-11T07:43:01.110Z,113.30
2022-09-11T07:45:29.199Z,112.30
2022-09-11T07:47:57.437Z,113.03
2022-09-11T07:50:25.100Z,111.40
2022-09-11T07:52:52.524Z,121.33
2022-09-11T07:55:19.960Z,102.10
2022-09-11T07:57:47.532Z,112.90
2022-09-11T08:00:16.784Z,119.63
2022-09-11T08:02:44.179Z,112.57
2022-09-11T08:05:11.947Z,114.10
2022-09-11T08:07:39.316Z,115.10
2022-09-11T08:10:26.179Z,112.13
2022-09-11T08:12:59.153Z,104.23
2022-09-11T08:15:28.475Z,111.30
2022-09-11T08:17:55.876Z,106.73
2022-09-11T08:20:23.348Z,112.37
2022-09-11T08:22:51.029Z,101.93
2022-09-11T08:25:18.494Z,95.90
2022-09-11T08:27:45.883Z,96.13
2022-09-11T08:30:13.520Z,92.53
2022-09-11T08:32:42.277Z,99.87
2022-09-11T08:35:09.806Z,96.37
2022-09-11T08:37:37.203Z,91.17
2022-09-11T08:40:04.881Z,91.27
2022-09-11T08:42:32.308Z,87.50
2022-09-11T08:45:00.871Z,94.37
2022-09-11T08:47:29.632Z,85.13
2022-09-11T08:50:00.257Z,90.30
2022-09-11T08:52:28.247Z,86.70
2022-09-11T08:54:57.876Z,80.93
2022-09-11T08:57:29.305Z,86.87
2022-09-11T09:00:14.645Z,84.50
2022-09-11T09:02:51.335Z,88.13
2022-09-11T09:05:26.407Z,82.63
2022-09-11T09:08:01.383Z,77.63
2022-09-11T09:10:35.754Z,77.90
2022-09-11T09:13:09.036Z,79.03
2022-09-11T09:15:42.529Z,79.17
2022-09-11T09:18:13.366Z,80.83
2022-09-11T09:20:45.150Z,68.83
2022-09-11T09:23:15.932Z,70.67
2022-09-11T09:25:43.714Z,70.37
2022-09-11T09:28:18.107Z,65.77
2022-09-11T09:30:48.144Z,64.43
2022-09-11T09:33:27.158Z,58.77
2022-09-11T09:35:57.014Z,62.50
2022-09-11T09:38:28.130Z,53.07
2022-09-11T09:40:57.711Z,55.10
2022-09-11T09:43:32.217Z,51.57
2022-09-11T09:46:04.381Z,55.13
2022-09-11T09:48:34.660Z,55.53
2022-09-11T09:51:04.064Z,59.10
2022-09-11T09:53:34.801Z,62.60
2022-09-11T09:56:03.097Z,54.83
2022-09-11T09:58:32.641Z,57.10
2022-09-11T10:01:00.284Z,59.17
2022-09-11T10:03:27.864Z,64.53
2022-09-11T10:05:56.347Z,55.40
2022-09-11T10:08:29.256Z,54.43
2022-09-11T10:10:58.039Z,53.10
2022-09-11T10:13:28.202Z,54.40
2022-09-11T10:15:56.977Z,46.60
2022-09-11T10:18:35.899Z,47.00
2022-09-11T10:21:15.103Z,43.70
2022-09-11T10:23:47.650Z,45.53
2022-09-11T10:26:16.432Z,41.83
2022-09-11T10:28:45.826Z,43.03
2022-09-11T10:31:14.937Z,37.40
2022-09-11T10:33:43.022Z,37.60
2022-09-11T10:36:10.884Z,39.13
2022-09-11T10:38:47.037Z,43.80
2022-09-11T10:41:21.041Z,43.13
2022-09-11T10:43:51.642Z,40.03
2022-09-11T10:46:24.423Z,35.00
2022-09-11T10:48:55.837Z,35.60
2022-09-11T10:51:23.587Z,34.47
2022-09-11T10:54:04.918Z,35.63
2022-09-11T10:56:36.928Z,36.10
2022-09-11T10:59:07.337Z,38.77
2022-09-11T11:01:34.916Z,37.17
2022-09-11T11:04:02.515Z,34.50
2022-09-11T11:06:38.060Z,36.83
2022-09-11T11:09:24.236Z,31.83
2022-09-11T11:12:03.143Z,31.40
2022-09-11T11:14:38.026Z,31.97
2022-09-11T11:17:08.672Z,32.40
2022-09-11T11:19:43.129Z,30.63
2022-09-11T11:22:17.832Z,34.10
2022-09-11T11:24:49.767Z,33.07
2022-09-11T11:27:28.831Z,33.80
2022-09-11T11:30:04.824Z,38.23
2022-09-11T11:32:45.035Z,34.53
2022-09-11T11:35:22.254Z,35.17
2022-09-11T11:37:54.835Z,37.43
2022-09-11T11:40:24.919Z,34.70
2022-09-11T11:43:00.251Z,36.40
2022-09-11T11:45:32.228Z,32.13
2022-09-11T11:48:00.828Z,30.23
2022-09-11T11:50:32.032Z,30.13
2022-09-11T11:53:03.509Z,31.20
2022-09-11T11:55:36.888Z,29.87
2022-09-11T11:58:13.920Z,29.40
2022-09-11T12:00:44.353Z,38.50
2022-09-11T12:03:15.172Z,32.93
2022-09-11T12:05:47.050Z,32.77
2022-09-11T12:08:17.199Z,33.23
2022-09-11T12:10:47.756Z,33.03
2022-09-11T12:13:22.579Z,30.47
2022-09-11T12:16:02.616Z,32.60
2022-09-11T12:18:33.778Z,32.27
2022-09-11T12:21:22.932Z,27.43
2022-09-11T12:24:21.529Z,31.03
2022-09-11T12:27:11.793Z,28.50
2022-09-11T12:29:59.848Z,24.70
2022-09-11T12:32:44.804Z,21.80
2022-09-11T12:35:20.888Z,26.53
2022-09-11T12:37:55.785Z,23.77
2022-09-11T12:40:26.974Z,26.07
2022-09-11T12:43:01.348Z,27.87
2022-09-11T12:45:38.877Z,24.20
2022-09-11T12:48:11.202Z,27.30
2022-09-11T12:50:39.412Z,21.70
2022-09-11T12:53:08.862Z,23.80
2022-09-11T12:55:39.778Z,22.70
2022-09-11T12:58:09.519Z,23.07
2022-09-11T13:00:40.679Z,21.60
2022-09-11T13:03:15.861Z,22.00
2022-09-11T13:05:45.300Z,24.57
2022-09-11T13:08:16.495Z,19.47
2022-09-11T13:10:43.886Z,18.83
2022-09-11T13:13:26.185Z,18.50
2022-09-11T13:15:57.934Z,17.80
2022-09-11T13:18:27.157Z,18.20
2022-09-11T13:21:02.075Z,15.00
2022-09-11T13:23:29.901Z,14.63
2022-09-11T13:25:58.137Z,17.40
2022-09-11T13:28:27.494Z,15.67
2022-09-11T13:31:00.542Z,16.43
2022-09-11T13:33:29.346Z,13.83
2022-09-11T13:35:57.654Z,16.17
2022-09-11T13:38:26.861Z,13.63
2022-09-11T13:40:55.422Z,15.00
2022-09-11T13:43:23.451Z,20.90
2022-09-11T13:46:09.593Z,15.17
2022-09-11T13:48:39.039Z,15.10
2022-09-11T13:51:06.704Z,14.10
2022-09-11T13:53:36.328Z,11.30
2022-09-11T13:56:03.843Z,10.53
2022-09-11T13:58:35.748Z,31.03
2022-09-11T14:01:10.795Z,16.20
2022-09-11T14:03:40.470Z,12.43
2022-09-11T14:06:10.888Z,11.30
2022-09-11T14:08:40.304Z,13.67
2022-09-11T14:11:11.442Z,11.60
2022-09-11T14:13:42.501Z,11.17
2022-09-11T14:16:11.371Z,14.40
2022-09-11T14:18:45.331Z,12.73
2022-09-11T14:21:14.105Z,11.47
2022-09-11T14:23:42.959Z,12.33
2022-09-11T14:26:12.543Z,11.83
2022-09-11T14:28:48.586Z,13.90
2022-09-11T14:31:28.501Z,10.73
2022-09-11T14:34:10.924Z,13.60
2022-09-11T14:36:40.049Z,12.10
2022-09-11T14:39:07.424Z,12.23
2022-09-11T14:41:35.119Z,11.50
2022-09-11T14:44:02.828Z,11.63
2022-09-11T14:46:30.453Z,14.70
2022-09-11T14:48:57.899Z,12.80
2022-09-11T14:51:26.592Z,12.40
2022-09-11T14:53:54.260Z,10.30
2022-09-11T14:56:21.650Z,11.87
2022-09-11T14:58:49.358Z,10.80
2022-09-11T15:01:16.820Z,10.33
2022-09-11T15:03:44.737Z,10.93
2022-09-11T15:06:17.004Z,12.27
2022-09-11T15:08:46.000Z,10.97
2022-09-11T15:11:13.461Z,9.60
2022-09-11T15:13:57.880Z,10.27
2022-09-11T15:16:25.539Z,12.87
2022-09-11T15:18:54.480Z,10.20
2022-09-11T15:21:21.891Z,11.27
2022-09-11T15:23:50.645Z,12.53
2022-09-11T15:26:18.151Z,9.87
2022-09-11T15:28:49.611Z,12.07
2022-09-11T15:31:18.504Z,11.40
2022-09-11T15:33:50.249Z,9.73
2022-09-11T15:36:18.476Z,9.90
2022-09-11T15:38:51.422Z,10.80
2022-09-11T15:41:21.908Z,11.73
2022-09-11T15:43:50.477Z,10.60
2022-09-11T15:46:18.858Z,9.30
2022-09-11T15:48:46.873Z,12.87
2022-09-11T15:51:15.548Z,9.70
2022-09-11T15:53:44.641Z,9.63
2022-09-11T15:56:13.451Z,11.60
2022-09-11T15:58:43.890Z,11.80
2022-09-11T16:01:17.603Z,10.00
2022-09-11T16:03:45.179Z,12.37
2022-09-11T16:06:12.660Z,10.77
2022-09-11T16:08:40.818Z,10.60
2022-09-11T16:11:09.660Z,11.10
2022-09-11T16:13:37.035Z,14.23
2022-09-11T16:16:06.388Z,11.17
2022-09-11T16:18:35.320Z,10.93
2022-09-11T16:21:02.662Z,11.60
2022-09-11T16:23:30.101Z,11.50
2022-09-11T16:25:57.566Z,10.50
2022-09-11T16:28:24.966Z,10.33
2022-09-11T16:30:53.392Z,10.23
2022-09-11T16:33:23.632Z,12.50
2022-09-11T16:35:57.960Z,10.60
2022-09-11T16:38:25.471Z,9.80
2022-09-11T16:41:00.645Z,10.57
2022-09-11T16:43:28.084Z,10.27
2022-09-11T16:45:55.648Z,9.77
2022-09-11T16:48:25.340Z,11.30
2022-09-11T16:50:53.642Z,10.30
2022-09-11T16:53:21.777Z,9.93
2022-09-11T16:55:50.292Z,9.97
2022-09-11T16:58:17.893Z,8.40
2022-09-11T17:00:45.346Z,9.20
2022-09-11T17:03:13.479Z,9.33
2022-09-11T17:05:48.348Z,10.13
2022-09-11T17:08:16.165Z,9.80
2022-09-11T17:10:44.588Z,9.80
2022-09-11T17:13:12.300Z,12.53
2022-09-11T17:15:40.251Z,10.10
2022-09-11T17:18:07.758Z,10.67
2022-09-11T17:20:35.396Z,10.20
2022-09-11T17:23:04.260Z,9.70
2022-09-11T17:25:31.750Z,9.03
2022-09-11T17:27:59.372Z,19.40
2022-09-11T17:30:26.830Z,11.90
2022-09-11T17:32:54.239Z,11.53
2022-09-11T17:35:21.593Z,11.33
2022-09-11T17:37:49.031Z,17.13
2022-09-11T17:40:18.437Z,11.77
2022-09-11T17:42:47.926Z,10.20
2022-09-11T17:45:16.052Z,11.73
2022-09-11T17:47:43.662Z,9.70
2022-09-11T17:50:11.209Z,13.23
2022-09-11T17:52:38.771Z,12.50
2022-09-11T17:55:06.521Z,13.63
2022-09-11T17:57:35.318Z,10.57
2022-09-11T18:00:03.652Z,10.07
2022-09-11T18:02:31.719Z,19.47
2022-09-11T18:04:59.133Z,10.70
2022-09-11T18:07:26.761Z,12.70
2022-09-11T18:09:56.374Z,11.67
2022-09-11T18:12:25.979Z,10.90
2022-09-11T18:14:56.855Z,9.93
2022-09-11T18:17:24.272Z,12.73
2022-09-11T18:19:51.644Z,12.47
2022-09-11T18:22:19.859Z,13.37
2022-09-11T18:24:47.411Z,11.50
2022-09-11T18:27:14.777Z,13.83
2022-09-11T18:29:42.136Z,10.53
2022-09-11T18:32:10.935Z,10.30
2022-09-11T18:34:38.389Z,11.60
2022-09-11T18:37:07.591Z,11.43
2022-09-11T18:39:35.057Z,10.93
2022-09-11T18:42:06.196Z,13.13
2022-09-11T18:44:33.618Z,12.60
2022-09-11T18:47:01.243Z,11.80
2022-09-11T18:49:30.074Z,11.90
2022-09-11T18:52:00.309Z,16.73
2022-09-11T18:54:29.928Z,11.17
2022-09-11T18:56:57.711Z,15.00
2022-09-11T18:59:25.244Z,13.00
2022-09-11T19:01:52.737Z,11.30
2022-09-11T19:04:20.250Z,19.70
2022-09-11T19:06:49.112Z,14.83
2022-09-11T19:09:17.397Z,13.20
2022-09-11T19:11:45.395Z,15.40
2022-09-11T19:14:13.259Z,14.87
2022-09-11T19:16:41.055Z,17.27
2022-09-11T19:19:08.958Z,14.77
2022-09-11T19:21:37.791Z,14.90
2022-09-11T19:24:07.710Z,13.67
2022-09-11T19:26:37.509Z,15.10
2022-09-11T19:29:06.091Z,14.57
2022-09-11T19:31:34.067Z,15.23
2022-09-11T19:34:02.455Z,17.00
2022-09-11T19:36:30.959Z,16.13
2022-09-11T19:39:00.541Z,18.93
2022-09-11T19:41:31.097Z,17.80
2022-09-11T19:44:00.327Z,18.50
2022-09-11T19:46:28.724Z,20.23
2022-09-11T19:48:56.794Z,16.67
2022-09-11T19:51:25.512Z,19.03
2022-09-11T19:53:56.981Z,16.53
2022-09-11T19:56:24.859Z,17.90
2022-09-11T19:58:53.948Z,18.97
2022-09-11T20:01:22.716Z,19.17
2022-09-11T20:03:50.848Z,17.50
2022-09-11T20:06:18.831Z,16.33
2022-09-11T20:08:47.282Z,22.07
2022-09-11T20:11:15.847Z,25.70
2022-09-11T20:13:43.383Z,24.30
2022-09-11T20:16:14.889Z,24.07
2022-09-11T20:18:42.624Z,24.63
2022-09-11T20:21:10.976Z,25.07
2022-09-11T20:23:39.112Z,24.20
2022-09-11T20:26:11.582Z,22.73
2022-09-11T20:28:42.679Z,25.47
2022-09-11T20:31:15.471Z,23.67
2022-09-11T20:33:43.836Z,24.70
2022-09-11T20:36:11.506Z,20.77
2022-09-11T20:38:39.250Z,25.90
2022-09-11T20:41:07.729Z,23.87
2022-09-11T20:43:35.184Z,22.80
2022-09-11T20:46:02.862Z,26.80
2022-09-11T20:48:31.998Z,22.40
2022-09-11T20:51:02.166Z,28.40
2022-09-11T20:53:29.683Z,21.20
2022-09-11T20:56:00.785Z,27.37
2022-09-11T20:58:28.183Z,25.90
2022-09-11T21:00:55.624Z,23.40
2022-09-11T21:03:23.064Z,28.47
2022-09-11T21:05:51.826Z,25.80
2022-09-11T21:08:19.587Z,26.63
2022-09-11T21:10:46.976Z,27.53
2022-09-11T21:13:14.596Z,23.80
2022-09-11T21:15:42.659Z,25.50
2022-09-11T21:18:10.066Z,25.27
2022-09-11T21:20:37.590Z,24.07
2022-09-11T21:23:06.773Z,24.80
2022-09-11T21:25:38.910Z,27.17
2022-09-11T21:28:06.438Z,25.17
2022-09-11T21:30:33.795Z,19.90
2022-09-11T21:33:01.187Z,27.20
2022-09-11T21:35:28.624Z,21.70
2022-09-11T21:37:56.042Z,25.53
2022-09-11T21:40:24.800Z,24.80
2022-09-11T21:42:52.225Z,23.37
2022-09-11T21:45:19.777Z,23.13
2022-09-11T21:47:47.182Z,27.40
2022-09-11T21:50:14.759Z,23.00
2022-09-11T21:52:42.135Z,24.20
2022-09-11T21:55:11.324Z,22.53
2022-09-11T21:57:40.059Z,30.50
2022-09-11T22:00:09.676Z,22.83
2022-09-11T22:02:37.354Z,22.43
2022-09-11T22:05:05.039Z,23.33
2022-09-11T22:07:32.439Z,25.57
2022-09-11T22:10:00.112Z,24.83
2022-09-11T22:12:27.531Z,23.53
2022-09-11T22:14:56.283Z,21.87
2022-09-11T22:17:24.273Z,22.20
2022-09-11T22:19:51.774Z,21.57
2022-09-11T22:22:19.393Z,30.83
2022-09-11T22:24:46.818Z,23.47
2022-09-11T22:27:14.181Z,21.13
2022-09-11T22:29:46.381Z,21.73
2022-09-11T22:32:16.039Z,21.23
2022-09-11T22:34:43.391Z,19.50
2022-09-11T22:37:11.168Z,25.00
2022-09-11T22:39:38.550Z,22.27
2022-09-11T22:42:06.137Z,26.83
2022-09-11T22:44:33.540Z,20.87
2022-09-11T22:47:00.964Z,22.53
2022-09-11T22:49:29.656Z,22.03
2022-09-11T22:51:57.022Z,21.60
2022-09-11T22:54:25.514Z,19.50
2022-09-11T22:56:52.892Z,19.60
2022-09-11T22:59:20.355Z,22.70
2022-09-11T23:01:47.885Z,20.33
2022-09-11T23:04:15.310Z,22.07
2022-09-11T23:07:01.842Z,22.20
2022-09-11T23:09:29.293Z,19.80
2022-09-11T23:11:56.712Z,23.53
2022-09-11T23:14:24.149Z,20.13
2022-09-11T23:16:51.550Z,19.80
2022-09-11T23:19:19.778Z,19.33
2022-09-11T23:21:48.488Z,20.27
2022-09-11T23:24:16.894Z,28.17
2022-09-11T23:26:45.261Z,19.83
2022-09-11T23:29:13.276Z,21.87
2022-09-11T23:31:40.882Z,17.70
2022-09-11T23:34:09.639Z,15.70
2022-09-11T23:36:37.071Z,18.27
2022-09-11T23:39:05.819Z,19.00
2022-09-11T23:41:33.202Z,16.47
2022-09-11T23:44:00.743Z,19.90
2022-09-11T23:46:28.153Z,17.00
2022-09-11T23:48:55.810Z,21.90
2022-09-11T23:51:23.211Z,18.17
2022-09-11T23:53:51.692Z,19.60
2022-09-11T23:56:22.317Z,19.57
2022-09-11T23:58:49.967Z,19.77
